< < Back
Terminal Aerodrome Forecast


Current Version              Previous Versions:   1  2  3  4  5  6  7  8  9  

Terminal Aerodrome Forecast

981
FTUS44 KHUN 251120
TAFHSV
TAF
KHSV 251120Z 2512/2612 14010KT P6SM FEW004 BKN110
     FM251400 22013KT P6SM BKN110
     FM251900 23015G22KT P6SM VCTS BKN030CB
     FM260000 23011KT P6SM FEW050
     FM260600 25005KT P6SM SCT030=

Latest METAR

294
SAUS80 KWBC 251800
MTRHSV
METAR KHSV 251753Z 23009KT 10SM SCT026 BKN036 OVC250 24/19 A2968 RMK AO2
SLP046 T02440189 10250 20150 58018


USA.gov is the U.S. government's official web portal to all federal, state and local government web resources and services.